createdAt,value
2023-01-19T00:02:35.333Z,94115.81
2023-01-19T00:05:37.345Z,94128.66
2023-01-19T00:08:41.530Z,94132.72
2023-01-19T00:11:45.881Z,94150.94
2023-01-19T00:14:49.684Z,94146.50
2023-01-19T00:17:51.701Z,94156.63
2023-01-19T00:20:54.006Z,94156.25
2023-01-19T00:23:56.522Z,94167.66
2023-01-19T00:27:00.900Z,94165.84
2023-01-19T00:30:05.214Z,94174.59
2023-01-19T00:33:07.025Z,94182.00
2023-01-19T00:36:11.037Z,94183.63
2023-01-19T00:39:12.846Z,94188.91
2023-01-19T00:42:14.921Z,94192.75
2023-01-19T00:45:20.029Z,94203.81
2023-01-19T00:48:21.966Z,94205.03
2023-01-19T00:51:23.742Z,94203.63
2023-01-19T00:54:27.614Z,94198.34
2023-01-19T00:57:29.718Z,94204.94
2023-01-19T01:00:35.422Z,94200.41
2023-01-19T01:03:37.430Z,94210.00
2023-01-19T01:06:39.365Z,94210.06
2023-01-19T01:09:43.840Z,94201.59
2023-01-19T01:12:54.810Z,94206.00
2023-01-19T01:16:01.531Z,94210.59
2023-01-19T01:19:03.697Z,94206.91
2023-01-19T01:22:06.039Z,94197.44
2023-01-19T01:25:08.527Z,94200.25
2023-01-19T01:28:10.451Z,94204.88
2023-01-19T01:31:16.142Z,94198.72
2023-01-19T01:34:18.514Z,94202.91
2023-01-19T01:37:20.838Z,94193.69
2023-01-19T01:40:23.103Z,94185.44
2023-01-19T01:43:43.223Z,94189.19
2023-01-19T01:46:46.419Z,94187.19
2023-01-19T01:49:54.225Z,94192.03
2023-01-19T01:53:06.639Z,94178.84
2023-01-19T01:56:15.396Z,94180.41
2023-01-19T01:59:22.641Z,94178.94
2023-01-19T02:02:33.256Z,94175.53
2023-01-19T02:05:37.442Z,94175.69
2023-01-19T02:08:44.001Z,94181.59
2023-01-19T02:11:46.325Z,94181.94
2023-01-19T02:14:48.518Z,94194.09
2023-01-19T02:17:51.975Z,94191.47
2023-01-19T02:21:09.150Z,94193.75
2023-01-19T02:24:14.592Z,94193.31
2023-01-19T02:27:20.092Z,94193.25
2023-01-19T02:30:23.421Z,94190.50
2023-01-19T02:33:25.897Z,94201.28
2023-01-19T02:36:34.935Z,94198.56
2023-01-19T02:39:45.260Z,94195.47
2023-01-19T02:42:49.680Z,94208.31
2023-01-19T02:45:54.307Z,94208.66
2023-01-19T02:48:59.769Z,94204.53
2023-01-19T02:52:02.662Z,94209.53
2023-01-19T02:55:16.657Z,94216.38
2023-01-19T02:58:28.532Z,94217.28
2023-01-19T03:01:44.207Z,94222.97
2023-01-19T03:04:59.594Z,94220.47
2023-01-19T03:08:10.664Z,94219.44
2023-01-19T03:11:16.806Z,94216.63
2023-01-19T03:14:26.526Z,94216.25
2023-01-19T03:17:32.117Z,94220.97
2023-01-19T03:20:36.413Z,94219.44
2023-01-19T03:23:43.630Z,94219.34
2023-01-19T03:26:53.940Z,94230.06
2023-01-19T03:29:59.743Z,94239.41
2023-01-19T03:33:07.292Z,94238.28
2023-01-19T03:36:15.132Z,94238.44
2023-01-19T03:39:22.548Z,94237.25
2023-01-19T03:42:28.001Z,94246.59
2023-01-19T03:45:32.892Z,94241.28
2023-01-19T03:48:34.802Z,94249.50
2023-01-19T03:51:39.161Z,94249.00
2023-01-19T03:54:43.472Z,94245.91
2023-01-19T03:57:49.100Z,94252.41
2023-01-19T04:00:50.983Z,94247.94
2023-01-19T04:03:55.624Z,94246.91
2023-01-19T04:06:57.666Z,94248.47
2023-01-19T04:09:59.892Z,94250.28
2023-01-19T04:13:06.250Z,94255.22
2023-01-19T04:16:09.662Z,94253.69
2023-01-19T04:19:11.551Z,94252.22
2023-01-19T04:22:15.692Z,94258.72
2023-01-19T04:25:17.699Z,94256.50
2023-01-19T04:28:21.099Z,94262.00
2023-01-19T04:31:22.890Z,94260.47
2023-01-19T04:34:25.035Z,94263.84
2023-01-19T04:37:27.123Z,94265.91
2023-01-19T04:40:29.116Z,94268.50
2023-01-19T04:43:34.013Z,94264.47
2023-01-19T04:46:38.519Z,94265.59
2023-01-19T04:49:40.813Z,94256.31
2023-01-19T04:52:43.055Z,94260.53
2023-01-19T04:55:44.952Z,94260.88
2023-01-19T04:58:48.339Z,94271.22
2023-01-19T05:01:50.373Z,94270.19
2023-01-19T05:04:53.761Z,94275.78
2023-01-19T05:07:55.843Z,94286.97
2023-01-19T05:10:57.847Z,94284.22
2023-01-19T05:14:01.540Z,94291.84
2023-01-19T05:17:03.714Z,94288.56
2023-01-19T05:20:08.642Z,94290.19
2023-01-19T05:23:11.018Z,94293.47
2023-01-19T05:26:14.169Z,94292.50
2023-01-19T05:29:18.633Z,94301.72
2023-01-19T05:32:20.463Z,94307.28
2023-01-19T05:35:35.253Z,94315.81
2023-01-19T05:38:37.903Z,94318.97
2023-01-19T05:41:40.769Z,94327.47
2023-01-19T05:44:44.218Z,94313.84
2023-01-19T05:47:48.285Z,94320.06
2023-01-19T05:50:52.630Z,94322.97
2023-01-19T05:53:54.445Z,94331.94
2023-01-19T05:56:57.080Z,94324.09
2023-01-19T06:00:03.822Z,94336.78
2023-01-19T06:03:05.633Z,94339.44
2023-01-19T06:06:08.119Z,94337.13
2023-01-19T06:09:10.261Z,94337.78
2023-01-19T06:12:12.289Z,94346.28
2023-01-19T06:15:16.236Z,94346.75
2023-01-19T06:18:18.337Z,94356.03
2023-01-19T06:21:23.582Z,94353.03
2023-01-19T06:24:25.459Z,94369.16
2023-01-19T06:27:27.655Z,94368.72
2023-01-19T06:30:31.285Z,94376.22
2023-01-19T06:33:36.161Z,94377.13
2023-01-19T06:36:37.954Z,94382.19
2023-01-19T06:39:39.981Z,94372.78
2023-01-19T06:42:41.896Z,94379.44
2023-01-19T06:45:48.021Z,94379.44
2023-01-19T06:48:50.059Z,94389.25
2023-01-19T06:51:52.221Z,94394.34
2023-01-19T06:54:54.147Z,94391.56
2023-01-19T06:57:58.754Z,94403.25
2023-01-19T07:01:03.919Z,94402.72
2023-01-19T07:04:05.819Z,94410.88
2023-01-19T07:07:07.616Z,94417.31
2023-01-19T07:10:10.964Z,94424.16
2023-01-19T07:13:12.758Z,94425.25
2023-01-19T07:16:16.378Z,94425.69
2023-01-19T07:19:27.309Z,94427.91
2023-01-19T07:22:29.199Z,94424.38
2023-01-19T07:25:31.041Z,94427.69
2023-01-19T07:28:32.920Z,94428.47
2023-01-19T07:31:36.540Z,94434.41
2023-01-19T07:34:39.736Z,94439.06
2023-01-19T07:37:41.814Z,94438.84
2023-01-19T07:40:44.007Z,94445.56
2023-01-19T07:43:45.979Z,94446.66
2023-01-19T07:46:49.511Z,94437.06
2023-01-19T07:49:51.474Z,94439.69
2023-01-19T07:52:53.813Z,94441.69
2023-01-19T07:55:56.671Z,94434.97
2023-01-19T07:58:59.117Z,94438.72
2023-01-19T08:02:02.630Z,94437.84
2023-01-19T08:05:04.996Z,94438.72
2023-01-19T08:08:06.834Z,94443.47
2023-01-19T08:11:08.834Z,94441.81
2023-01-19T08:14:11.082Z,94446.78
2023-01-19T08:17:15.244Z,94452.97
2023-01-19T08:20:17.830Z,94453.63
2023-01-19T08:23:19.803Z,94457.19
2023-01-19T08:26:27.422Z,94454.63
2023-01-19T08:29:31.195Z,94469.97
2023-01-19T08:32:35.014Z,94470.53
2023-01-19T08:35:38.613Z,94487.09
2023-01-19T08:38:40.660Z,94499.47
2023-01-19T08:41:44.815Z,94501.66
2023-01-19T08:44:57.588Z,94510.81
2023-01-19T08:48:02.098Z,94515.19
2023-01-19T08:51:04.408Z,94516.84
2023-01-19T08:54:06.939Z,94512.09
2023-01-19T08:57:08.740Z,94526.66
2023-01-19T09:00:12.036Z,94525.78
2023-01-19T09:03:15.322Z,94541.91
2023-01-19T09:06:20.221Z,94538.00
2023-01-19T09:09:24.615Z,94541.63
2023-01-19T09:12:28.548Z,94542.47
2023-01-19T09:15:30.943Z,94542.84
2023-01-19T09:18:37.691Z,94555.91
2023-01-19T09:21:39.567Z,94560.91
2023-01-19T09:24:42.773Z,94553.81
2023-01-19T09:27:44.750Z,94548.00
2023-01-19T09:30:48.707Z,94557.75
2023-01-19T09:33:52.296Z,94567.38
2023-01-19T09:36:54.279Z,94557.56
2023-01-19T09:39:59.844Z,94557.06
2023-01-19T09:43:12.788Z,94563.38
2023-01-19T09:46:19.941Z,94558.72
2023-01-19T09:49:31.421Z,94564.81
2023-01-19T09:52:37.766Z,94559.41
2023-01-19T09:55:43.725Z,94560.50
2023-01-19T09:58:46.084Z,94567.94
2023-01-19T10:02:04.038Z,94571.19
2023-01-19T10:05:25.427Z,94560.47
2023-01-19T10:08:36.172Z,94555.72
2023-01-19T10:11:52.707Z,94556.72
2023-01-19T10:15:03.427Z,94561.13
2023-01-19T10:18:13.494Z,94557.06
2023-01-19T10:21:20.511Z,94560.59
2023-01-19T10:24:29.284Z,94568.31
2023-01-19T10:27:32.592Z,94561.69
2023-01-19T10:30:35.368Z,94572.09
2023-01-19T10:33:38.790Z,94565.22
2023-01-19T10:36:42.196Z,94559.91
2023-01-19T10:39:45.450Z,94558.91
2023-01-19T10:42:47.459Z,94553.50
2023-01-19T10:45:50.620Z,94553.72
2023-01-19T10:48:54.335Z,94555.91
2023-01-19T10:51:59.369Z,94552.19
2023-01-19T10:55:03.225Z,94543.34
2023-01-19T10:58:06.355Z,94546.41
2023-01-19T11:01:43.151Z,94543.31
2023-01-19T11:04:45.455Z,94542.59
2023-01-19T11:07:51.518Z,94542.47
2023-01-19T11:10:59.044Z,94540.59
2023-01-19T11:14:09.692Z,94548.97
2023-01-19T11:17:19.899Z,94540.69
2023-01-19T11:20:24.338Z,94538.03
2023-01-19T11:23:30.303Z,94538.72
2023-01-19T11:26:35.304Z,94532.19
2023-01-19T11:29:37.441Z,94529.53
2023-01-19T11:32:39.547Z,94531.97
2023-01-19T11:35:44.849Z,94526.66
2023-01-19T11:38:51.313Z,94525.56
2023-01-19T11:41:56.208Z,94528.31
2023-01-19T11:45:06.350Z,94520.69
2023-01-19T11:48:18.662Z,94520.56
2023-01-19T11:51:23.048Z,94522.91
2023-01-19T11:54:31.766Z,94518.59
2023-01-19T11:57:34.168Z,94520.13
2023-01-19T12:00:41.595Z,94516.06
2023-01-19T12:03:47.812Z,94517.28
2023-01-19T12:06:54.523Z,94516.59
2023-01-19T12:10:07.319Z,94514.38
2023-01-19T12:13:28.666Z,94513.72
2023-01-19T12:16:34.488Z,94516.81
2023-01-19T12:19:42.860Z,94505.09
2023-01-19T12:22:50.812Z,94508.09
2023-01-19T12:26:09.629Z,94512.84
2023-01-19T12:29:14.013Z,94505.66
2023-01-19T12:32:20.115Z,94515.41
2023-01-19T12:35:58.586Z,94517.47
2023-01-19T12:39:03.795Z,94511.06
2023-01-19T12:42:15.450Z,94516.63
2023-01-19T12:45:21.014Z,94511.31
2023-01-19T12:48:28.249Z,94508.44
2023-01-19T12:51:30.670Z,94512.41
2023-01-19T12:54:33.009Z,94507.34
2023-01-19T12:57:46.237Z,94499.47
2023-01-19T13:00:52.008Z,94502.69
2023-01-19T13:04:06.011Z,94503.34
2023-01-19T13:07:09.973Z,94504.03
2023-01-19T13:10:48.911Z,94506.78
2023-01-19T13:14:26.968Z,94503.78
2023-01-19T13:17:33.196Z,94501.59
2023-01-19T13:20:46.648Z,94504.22
2023-01-19T13:23:54.742Z,94508.00
2023-01-19T13:26:58.308Z,94506.44
2023-01-19T13:30:03.550Z,94511.31
2023-01-19T13:33:17.815Z,94502.13
2023-01-19T13:36:27.554Z,94507.53
2023-01-19T13:39:34.664Z,94506.34
2023-01-19T13:42:39.033Z,94510.09
2023-01-19T13:45:41.841Z,94512.50
2023-01-19T13:48:57.682Z,94515.50
2023-01-19T13:52:07.739Z,94511.19
2023-01-19T13:55:14.418Z,94514.59
2023-01-19T13:58:23.369Z,94521.91
2023-01-19T14:01:28.898Z,94521.56
2023-01-19T14:04:34.070Z,94530.63
2023-01-19T14:07:36.098Z,94522.47
2023-01-19T14:10:40.477Z,94530.63
2023-01-19T14:13:46.486Z,94529.97
2023-01-19T14:16:48.340Z,94522.13
2023-01-19T14:19:53.606Z,94528.06
2023-01-19T14:22:56.424Z,94531.72
2023-01-19T14:25:58.268Z,94534.38
2023-01-19T14:29:07.966Z,94534.38
2023-01-19T14:32:15.740Z,94535.72
2023-01-19T14:35:25.769Z,94545.78
2023-01-19T14:38:27.626Z,94546.13
2023-01-19T14:41:37.847Z,94541.03
2023-01-19T14:44:42.948Z,94545.13
2023-01-19T14:47:47.458Z,94546.22
2023-01-19T14:51:03.180Z,94548.22
2023-01-19T14:54:05.877Z,94551.63
2023-01-19T14:57:12.680Z,94551.53
2023-01-19T15:00:17.578Z,94563.69
2023-01-19T15:03:19.511Z,94561.69
2023-01-19T15:06:24.822Z,94558.03
2023-01-19T15:09:27.140Z,94567.78
2023-01-19T15:12:29.329Z,94570.88
2023-01-19T15:15:33.680Z,94569.75
2023-01-19T15:18:35.882Z,94567.56
2023-01-19T15:21:39.333Z,94573.84
2023-01-19T15:24:41.121Z,94576.97
2023-01-19T15:27:43.748Z,94579.94
2023-01-19T15:30:45.801Z,94582.72
2023-01-19T15:33:49.500Z,94575.97
2023-01-19T15:36:53.726Z,94579.28
2023-01-19T15:39:55.581Z,94591.91
2023-01-19T15:42:57.367Z,94587.56
2023-01-19T15:46:01.357Z,94591.56
2023-01-19T15:49:03.307Z,94593.09
2023-01-19T15:52:06.654Z,94591.22
2023-01-19T15:55:10.911Z,94597.41
2023-01-19T15:58:13.818Z,94599.06
2023-01-19T16:01:17.510Z,94601.72
2023-01-19T16:04:19.552Z,94600.84
2023-01-19T16:07:37.846Z,94605.72
2023-01-19T16:10:41.224Z,94604.38
2023-01-19T16:13:45.300Z,94608.91
2023-01-19T16:16:47.268Z,94610.09
2023-01-19T16:19:51.576Z,94609.91
2023-01-19T16:22:56.561Z,94614.44
2023-01-19T16:26:02.211Z,94616.75
2023-01-19T16:29:06.047Z,94620.06
2023-01-19T16:32:07.868Z,94624.03
2023-01-19T16:35:09.934Z,94625.47
2023-01-19T16:38:13.357Z,94624.03
2023-01-19T16:41:16.804Z,94625.59
2023-01-19T16:44:20.106Z,94623.75
2023-01-19T16:47:22.288Z,94627.25
2023-01-19T16:50:24.318Z,94627.38
2023-01-19T16:53:29.762Z,94626.28
2023-01-19T16:56:31.842Z,94624.06
2023-01-19T16:59:33.906Z,94638.22
2023-01-19T17:02:35.903Z,94629.59
2023-01-19T17:05:38.406Z,94632.69
2023-01-19T17:08:42.048Z,94640.00
2023-01-19T17:11:47.737Z,94636.13
2023-01-19T17:14:50.652Z,94645.63
2023-01-19T17:17:53.939Z,94638.78
2023-01-19T17:21:01.654Z,94648.63
2023-01-19T17:24:08.451Z,94639.56
2023-01-19T17:27:12.256Z,94637.00
2023-01-19T17:30:17.113Z,94639.31
2023-01-19T17:33:22.476Z,94636.34
2023-01-19T17:36:26.531Z,94645.31
2023-01-19T17:39:30.467Z,94638.78
2023-01-19T17:42:33.224Z,94640.78
2023-01-19T17:45:37.186Z,94638.22
2023-01-19T17:48:39.838Z,94639.31
2023-01-19T17:51:42.432Z,94639.97
2023-01-19T17:54:46.565Z,94640.31
2023-01-19T17:57:49.550Z,94636.31
2023-01-19T18:00:52.818Z,94639.09
2023-01-19T18:03:59.228Z,94633.91
2023-01-19T18:07:02.579Z,94641.06
2023-01-19T18:10:07.770Z,94640.75
2023-01-19T18:13:11.906Z,94647.72
2023-01-19T18:16:17.061Z,94640.97
2023-01-19T18:19:21.050Z,94649.69
2023-01-19T18:22:24.111Z,94651.69
2023-01-19T18:25:29.378Z,94643.50
2023-01-19T18:28:34.122Z,94648.66
2023-01-19T18:31:39.944Z,94650.56
2023-01-19T18:34:42.814Z,94658.38
2023-01-19T18:37:45.854Z,94654.94
2023-01-19T18:41:01.096Z,94655.19
2023-01-19T18:44:04.414Z,94658.50
2023-01-19T18:47:07.514Z,94664.81
2023-01-19T18:50:14.237Z,94663.34
2023-01-19T18:53:17.686Z,94664.09
2023-01-19T18:56:24.425Z,94657.47
2023-01-19T18:59:27.864Z,94662.75
2023-01-19T19:02:31.292Z,94658.47
2023-01-19T19:05:35.898Z,94655.94
2023-01-19T19:08:39.072Z,94652.41
2023-01-19T19:11:47.532Z,94644.66
2023-01-19T19:14:50.996Z,94642.56
2023-01-19T19:17:54.904Z,94641.22
2023-01-19T19:20:57.248Z,94630.41
2023-01-19T19:24:01.918Z,94636.25
2023-01-19T19:27:08.095Z,94638.47
2023-01-19T19:30:18.209Z,94637.13
2023-01-19T19:33:21.989Z,94641.75
2023-01-19T19:36:27.163Z,94637.00
2023-01-19T19:39:30.201Z,94638.13
2023-01-19T19:42:37.167Z,94634.00
2023-01-19T19:45:46.186Z,94632.47
2023-01-19T19:48:51.125Z,94632.97
2023-01-19T19:51:55.631Z,94630.22
2023-01-19T19:54:58.837Z,94629.13
2023-01-19T19:58:04.791Z,94635.47
2023-01-19T20:01:10.036Z,94633.84
2023-01-19T20:04:16.716Z,94623.19
2023-01-19T20:07:19.592Z,94634.19
2023-01-19T20:10:22.625Z,94631.41
2023-01-19T20:13:32.076Z,94634.81
2023-01-19T20:16:36.340Z,94637.16
2023-01-19T20:19:39.930Z,94643.56
2023-01-19T20:22:43.394Z,94649.03
2023-01-19T20:25:46.786Z,94648.53
2023-01-19T20:28:51.792Z,94647.63
2023-01-19T20:31:56.573Z,94648.78
2023-01-19T20:34:59.279Z,94638.38
2023-01-19T20:38:02.681Z,94642.31
2023-01-19T20:41:07.022Z,94642.78
2023-01-19T20:44:12.571Z,94646.13
2023-01-19T20:47:17.420Z,94634.63
2023-01-19T20:50:21.878Z,94638.06
2023-01-19T20:53:25.741Z,94639.84
2023-01-19T20:56:28.731Z,94636.16
2023-01-19T20:59:33.325Z,94639.75
2023-01-19T21:02:35.810Z,94636.31
2023-01-19T21:05:38.073Z,94642.53
2023-01-19T21:08:42.197Z,94643.59
2023-01-19T21:11:44.881Z,94649.88
2023-01-19T21:14:50.900Z,94658.72
2023-01-19T21:17:53.856Z,94655.28
2023-01-19T21:21:00.393Z,94666.19
2023-01-19T21:24:04.022Z,94662.47
2023-01-19T21:27:06.017Z,94660.72
2023-01-19T21:30:11.112Z,94667.81
2023-01-19T21:33:14.095Z,94678.06
2023-01-19T21:36:16.353Z,94674.81
2023-01-19T21:39:18.729Z,94673.13
2023-01-19T21:42:20.732Z,94674.97
2023-01-19T21:45:24.129Z,94682.44
2023-01-19T21:48:25.957Z,94681.19
2023-01-19T21:51:28.147Z,94694.56
2023-01-19T21:54:30.025Z,94689.28
2023-01-19T21:57:32.068Z,94689.88
2023-01-19T22:00:35.464Z,94685.88
2023-01-19T22:03:38.527Z,94683.75
2023-01-19T22:06:40.556Z,94680.78
2023-01-19T22:09:42.581Z,94685.91
2023-01-19T22:12:44.388Z,94682.47
2023-01-19T22:15:59.307Z,94681.09
2023-01-19T22:19:03.138Z,94686.81
2023-01-19T22:22:04.920Z,94695.69
2023-01-19T22:25:07.350Z,94684.50
2023-01-19T22:28:09.184Z,94676.16
2023-01-19T22:31:14.677Z,94675.72
2023-01-19T22:34:17.436Z,94684.56
2023-01-19T22:37:19.213Z,94669.34
2023-01-19T22:40:21.023Z,94676.97
2023-01-19T22:43:25.230Z,94666.88
2023-01-19T22:46:30.458Z,94668.25
2023-01-19T22:49:32.353Z,94644.66
2023-01-19T22:52:34.420Z,94654.91
2023-01-19T22:55:37.174Z,94668.25
2023-01-19T22:58:39.445Z,94672.78
2023-01-19T23:01:43.939Z,94653.50
2023-01-19T23:04:45.845Z,94633.44
2023-01-19T23:07:48.106Z,94623.69
2023-01-19T23:10:52.480Z,94631.72
2023-01-19T23:13:55.461Z,94638.25
2023-01-19T23:16:58.663Z,94638.25
2023-01-19T23:20:02.992Z,94646.75
2023-01-19T23:23:04.865Z,94645.31
2023-01-19T23:26:08.627Z,94646.41
2023-01-19T23:29:12.796Z,94647.16
2023-01-19T23:32:16.245Z,94641.13
2023-01-19T23:35:19.474Z,94643.88
2023-01-19T23:38:22.570Z,94645.13
2023-01-19T23:41:26.405Z,94640.91
2023-01-19T23:44:30.987Z,94644.97
2023-01-19T23:47:36.306Z,94647.56
2023-01-19T23:50:39.711Z,94639.34
2023-01-19T23:53:41.713Z,94634.53
2023-01-19T23:56:43.930Z,94646.06
2023-01-19T23:59:45.722Z,94641.53
